sensor_id;sensor_type;location;lat;lon;timestamp;P1;durP1;ratioP1;P2;durP2;ratioP2
40471;SDS011;26174;42.908;23.800;2023-03-23T00:00:52;59.03;;;28.85;;
40471;SDS011;26174;42.908;23.800;2023-03-23T00:03:19;55.45;;;27.75;;
40471;SDS011;26174;42.908;23.800;2023-03-23T00:05:46;56.28;;;28.58;;
40471;SDS011;26174;42.908;23.800;2023-03-23T00:08:15;56.58;;;31.10;;
40471;SDS011;26174;42.908;23.800;2023-03-23T00:10:50;48.05;;;24.80;;
40471;SDS011;26174;42.908;23.800;2023-03-23T00:13:22;44.25;;;24.80;;
40471;SDS011;26174;42.908;23.800;2023-03-23T00:15:51;44.10;;;23.10;;
40471;SDS011;26174;42.908;23.800;2023-03-23T00:18:17;48.17;;;23.88;;
40471;SDS011;26174;42.908;23.800;2023-03-23T00:20:48;43.97;;;23.27;;
40471;SDS011;26174;42.908;23.800;2023-03-23T00:23:16;37.90;;;20.30;;
40471;SDS011;26174;42.908;23.800;2023-03-23T00:25:48;33.17;;;19.77;;
40471;SDS011;26174;42.908;23.800;2023-03-23T00:28:19;40.28;;;19.80;;
40471;SDS011;26174;42.908;23.800;2023-03-23T00:33:24;39.65;;;21.42;;
40471;SDS011;26174;42.908;23.800;2023-03-23T00:35:52;42.83;;;20.98;;
40471;SDS011;26174;42.908;23.800;2023-03-23T00:38:22;36.38;;;19.10;;
40471;SDS011;26174;42.908;23.800;2023-03-23T00:40:49;39.03;;;19.77;;
40471;SDS011;26174;42.908;23.800;2023-03-23T00:43:36;35.78;;;18.55;;
40471;SDS011;26174;42.908;23.800;2023-03-23T00:46:02;34.33;;;18.95;;
40471;SDS011;26174;42.908;23.800;2023-03-23T00:48:33;40.05;;;18.58;;
40471;SDS011;26174;42.908;23.800;2023-03-23T00:51:00;38.58;;;20.63;;
40471;SDS011;26174;42.908;23.800;2023-03-23T00:53:31;40.40;;;20.23;;
40471;SDS011;26174;42.908;23.800;2023-03-23T00:55:57;42.67;;;21.10;;
40471;SDS011;26174;42.908;23.800;2023-03-23T00:58:22;36.78;;;20.48;;
40471;SDS011;26174;42.908;23.800;2023-03-23T01:00:48;39.65;;;20.65;;
40471;SDS011;26174;42.908;23.800;2023-03-23T01:03:13;42.15;;;20.85;;
40471;SDS011;26174;42.908;23.800;2023-03-23T01:05:43;45.22;;;22.55;;
40471;SDS011;26174;42.908;23.800;2023-03-23T01:08:12;49.47;;;23.35;;
40471;SDS011;26174;42.908;23.800;2023-03-23T01:10:38;55.10;;;24.75;;
40471;SDS011;26174;42.908;23.800;2023-03-23T01:13:04;48.40;;;25.60;;
40471;SDS011;26174;42.908;23.800;2023-03-23T01:15:31;51.92;;;26.33;;
40471;SDS011;26174;42.908;23.800;2023-03-23T01:17:57;66.07;;;27.08;;
40471;SDS011;26174;42.908;23.800;2023-03-23T01:20:23;52.83;;;26.73;;
40471;SDS011;26174;42.908;23.800;2023-03-23T01:22:49;54.65;;;25.65;;
40471;SDS011;26174;42.908;23.800;2023-03-23T01:25:15;43.70;;;23.88;;
40471;SDS011;26174;42.908;23.800;2023-03-23T01:27:41;45.40;;;23.08;;
40471;SDS011;26174;42.908;23.800;2023-03-23T01:30:07;49.63;;;23.25;;
40471;SDS011;26174;42.908;23.800;2023-03-23T01:32:35;42.78;;;21.90;;
40471;SDS011;26174;42.908;23.800;2023-03-23T01:35:00;41.10;;;21.20;;
40471;SDS011;26174;42.908;23.800;2023-03-23T01:37:26;45.42;;;21.00;;
40471;SDS011;26174;42.908;23.800;2023-03-23T01:39:52;36.95;;;19.63;;
40471;SDS011;26174;42.908;23.800;2023-03-23T01:42:21;43.65;;;18.88;;
40471;SDS011;26174;42.908;23.800;2023-03-23T01:47:15;37.38;;;18.80;;
40471;SDS011;26174;42.908;23.800;2023-03-23T01:49:43;39.42;;;19.63;;
40471;SDS011;26174;42.908;23.800;2023-03-23T01:52:12;49.92;;;20.00;;
40471;SDS011;26174;42.908;23.800;2023-03-23T01:54:42;41.63;;;20.92;;
40471;SDS011;26174;42.908;23.800;2023-03-23T01:57:11;41.13;;;19.50;;
40471;SDS011;26174;42.908;23.800;2023-03-23T01:59:42;44.08;;;21.63;;
40471;SDS011;26174;42.908;23.800;2023-03-23T02:02:10;53.22;;;22.30;;
40471;SDS011;26174;42.908;23.800;2023-03-23T02:04:48;50.72;;;23.40;;
40471;SDS011;26174;42.908;23.800;2023-03-23T02:07:15;61.90;;;26.08;;
40471;SDS011;26174;42.908;23.800;2023-03-23T02:09:44;66.60;;;27.55;;
40471;SDS011;26174;42.908;23.800;2023-03-23T02:12:10;74.25;;;28.85;;
40471;SDS011;26174;42.908;23.800;2023-03-23T02:14:35;71.55;;;29.77;;
40471;SDS011;26174;42.908;23.800;2023-03-23T02:17:12;65.80;;;28.63;;
40471;SDS011;26174;42.908;23.800;2023-03-23T02:22:41;60.90;;;26.95;;
40471;SDS011;26174;42.908;23.800;2023-03-23T02:38:57;57.85;;;24.40;;
40471;SDS011;26174;42.908;23.800;2023-03-23T02:41:44;58.70;;;25.77;;
40471;SDS011;26174;42.908;23.800;2023-03-23T02:44:12;58.85;;;25.33;;
40471;SDS011;26174;42.908;23.800;2023-03-23T02:46:39;65.47;;;28.13;;
40471;SDS011;26174;42.908;23.800;2023-03-23T02:49:05;64.93;;;27.23;;
40471;SDS011;26174;42.908;23.800;2023-03-23T02:51:32;63.20;;;25.67;;
40471;SDS011;26174;42.908;23.800;2023-03-23T02:54:00;67.78;;;26.55;;
40471;SDS011;26174;42.908;23.800;2023-03-23T02:56:26;63.58;;;26.15;;
40471;SDS011;26174;42.908;23.800;2023-03-23T02:58:53;61.33;;;26.50;;
40471;SDS011;26174;42.908;23.800;2023-03-23T03:03:51;60.73;;;26.97;;
40471;SDS011;26174;42.908;23.800;2023-03-23T03:06:22;60.05;;;26.05;;
40471;SDS011;26174;42.908;23.800;2023-03-23T03:11:51;58.38;;;28.27;;
40471;SDS011;26174;42.908;23.800;2023-03-23T03:14:55;63.08;;;25.02;;
40471;SDS011;26174;42.908;23.800;2023-03-23T03:17:44;54.65;;;24.08;;
40471;SDS011;26174;42.908;23.800;2023-03-23T03:20:16;50.97;;;23.23;;
40471;SDS011;26174;42.908;23.800;2023-03-23T03:22:42;56.53;;;23.38;;
40471;SDS011;26174;42.908;23.800;2023-03-23T03:25:09;42.10;;;21.58;;
40471;SDS011;26174;42.908;23.800;2023-03-23T03:27:37;43.80;;;22.45;;
40471;SDS011;26174;42.908;23.800;2023-03-23T03:30:06;45.35;;;22.30;;
40471;SDS011;26174;42.908;23.800;2023-03-23T03:32:37;45.85;;;22.85;;
40471;SDS011;26174;42.908;23.800;2023-03-23T03:35:06;47.85;;;23.35;;
40471;SDS011;26174;42.908;23.800;2023-03-23T03:37:35;54.00;;;23.20;;
40471;SDS011;26174;42.908;23.800;2023-03-23T03:40:03;58.08;;;24.70;;
40471;SDS011;26174;42.908;23.800;2023-03-23T03:42:37;65.85;;;27.05;;
40471;SDS011;26174;42.908;23.800;2023-03-23T03:45:03;57.58;;;25.45;;
40471;SDS011;26174;42.908;23.800;2023-03-23T03:47:30;57.35;;;24.35;;
40471;SDS011;26174;42.908;23.800;2023-03-23T03:49:56;56.42;;;24.48;;
40471;SDS011;26174;42.908;23.800;2023-03-23T03:52:21;57.90;;;25.20;;
40471;SDS011;26174;42.908;23.800;2023-03-23T03:54:47;53.55;;;26.15;;
40471;SDS011;26174;42.908;23.800;2023-03-23T03:57:12;61.63;;;28.30;;
40471;SDS011;26174;42.908;23.800;2023-03-23T03:59:38;64.60;;;26.90;;
40471;SDS011;26174;42.908;23.800;2023-03-23T04:02:04;65.10;;;27.88;;
40471;SDS011;26174;42.908;23.800;2023-03-23T04:04:29;63.00;;;28.15;;
40471;SDS011;26174;42.908;23.800;2023-03-23T04:06:55;63.58;;;27.83;;
40471;SDS011;26174;42.908;23.800;2023-03-23T04:09:22;65.53;;;29.00;;
40471;SDS011;26174;42.908;23.800;2023-03-23T04:11:47;90.25;;;34.00;;
40471;SDS011;26174;42.908;23.800;2023-03-23T04:14:13;86.00;;;31.95;;
40471;SDS011;26174;42.908;23.800;2023-03-23T04:16:38;63.72;;;26.58;;
40471;SDS011;26174;42.908;23.800;2023-03-23T04:19:06;63.25;;;26.33;;
40471;SDS011;26174;42.908;23.800;2023-03-23T04:21:32;57.83;;;25.90;;
40471;SDS011;26174;42.908;23.800;2023-03-23T04:23:59;61.55;;;25.10;;
40471;SDS011;26174;42.908;23.800;2023-03-23T04:26:27;60.90;;;24.65;;
40471;SDS011;26174;42.908;23.800;2023-03-23T04:28:54;61.05;;;26.60;;
40471;SDS011;26174;42.908;23.800;2023-03-23T04:31:20;61.40;;;25.63;;
40471;SDS011;26174;42.908;23.800;2023-03-23T04:33:49;52.83;;;25.13;;
40471;SDS011;26174;42.908;23.800;2023-03-23T04:36:17;67.05;;;28.75;;
40471;SDS011;26174;42.908;23.800;2023-03-23T04:38:45;74.75;;;30.42;;
40471;SDS011;26174;42.908;23.800;2023-03-23T04:41:10;60.53;;;27.02;;
40471;SDS011;26174;42.908;23.800;2023-03-23T04:43:36;58.53;;;25.92;;
40471;SDS011;26174;42.908;23.800;2023-03-23T04:46:06;65.55;;;25.40;;
40471;SDS011;26174;42.908;23.800;2023-03-23T04:48:34;59.50;;;23.88;;
40471;SDS011;26174;42.908;23.800;2023-03-23T04:51:02;55.63;;;26.33;;
40471;SDS011;26174;42.908;23.800;2023-03-23T06:23:32;55.88;;;27.60;;
40471;SDS011;26174;42.908;23.800;2023-03-23T06:25:59;55.92;;;27.98;;
40471;SDS011;26174;42.908;23.800;2023-03-23T06:28:26;57.08;;;27.48;;
40471;SDS011;26174;42.908;23.800;2023-03-23T06:30:52;57.53;;;26.88;;
40471;SDS011;26174;42.908;23.800;2023-03-23T06:33:21;54.30;;;26.45;;
40471;SDS011;26174;42.908;23.800;2023-03-23T06:35:48;52.63;;;25.83;;
40471;SDS011;26174;42.908;23.800;2023-03-23T06:38:14;52.50;;;25.83;;
40471;SDS011;26174;42.908;23.800;2023-03-23T06:40:40;55.17;;;25.75;;
40471;SDS011;26174;42.908;23.800;2023-03-23T06:43:11;46.83;;;25.05;;
40471;SDS011;26174;42.908;23.800;2023-03-23T06:45:36;48.67;;;24.33;;
40471;SDS011;26174;42.908;23.800;2023-03-23T06:48:02;54.20;;;27.08;;
40471;SDS011;26174;42.908;23.800;2023-03-23T06:50:27;49.30;;;25.20;;
40471;SDS011;26174;42.908;23.800;2023-03-23T06:52:53;59.88;;;26.20;;
40471;SDS011;26174;42.908;23.800;2023-03-23T06:55:18;51.22;;;25.58;;
40471;SDS011;26174;42.908;23.800;2023-03-23T06:57:44;49.28;;;24.90;;
40471;SDS011;26174;42.908;23.800;2023-03-23T07:00:10;50.60;;;24.73;;
40471;SDS011;26174;42.908;23.800;2023-03-23T07:02:41;56.58;;;25.42;;
40471;SDS011;26174;42.908;23.800;2023-03-23T07:05:08;46.45;;;24.85;;
40471;SDS011;26174;42.908;23.800;2023-03-23T07:07:34;49.47;;;25.67;;
40471;SDS011;26174;42.908;23.800;2023-03-23T07:10:01;51.72;;;24.77;;
40471;SDS011;26174;42.908;23.800;2023-03-23T07:12:28;45.90;;;24.38;;
40471;SDS011;26174;42.908;23.800;2023-03-23T07:14:54;43.65;;;23.58;;
40471;SDS011;26174;42.908;23.800;2023-03-23T07:17:20;50.55;;;24.73;;
40471;SDS011;26174;42.908;23.800;2023-03-23T07:19:46;50.60;;;26.25;;
40471;SDS011;26174;42.908;23.800;2023-03-23T07:22:12;49.60;;;25.48;;
40471;SDS011;26174;42.908;23.800;2023-03-23T07:24:37;56.88;;;29.05;;
40471;SDS011;26174;42.908;23.800;2023-03-23T07:27:03;66.47;;;32.15;;
40471;SDS011;26174;42.908;23.800;2023-03-23T07:29:28;44.33;;;24.27;;
40471;SDS011;26174;42.908;23.800;2023-03-23T07:31:54;53.42;;;28.95;;
40471;SDS011;26174;42.908;23.800;2023-03-23T07:34:20;46.13;;;23.77;;
40471;SDS011;26174;42.908;23.800;2023-03-23T07:36:46;48.53;;;25.92;;
40471;SDS011;26174;42.908;23.800;2023-03-23T07:39:12;47.90;;;25.08;;
40471;SDS011;26174;42.908;23.800;2023-03-23T07:41:38;43.25;;;21.13;;
40471;SDS011;26174;42.908;23.800;2023-03-23T07:44:04;46.55;;;22.67;;
40471;SDS011;26174;42.908;23.800;2023-03-23T07:46:30;43.58;;;22.95;;
40471;SDS011;26174;42.908;23.800;2023-03-23T07:48:56;38.75;;;20.48;;
40471;SDS011;26174;42.908;23.800;2023-03-23T07:51:22;41.97;;;21.65;;
40471;SDS011;26174;42.908;23.800;2023-03-23T07:53:48;51.70;;;25.27;;
40471;SDS011;26174;42.908;23.800;2023-03-23T07:56:15;45.20;;;21.42;;
40471;SDS011;26174;42.908;23.800;2023-03-23T07:58:44;54.35;;;26.20;;
40471;SDS011;26174;42.908;23.800;2023-03-23T08:01:10;43.15;;;22.45;;
40471;SDS011;26174;42.908;23.800;2023-03-23T08:03:36;36.78;;;18.50;;
40471;SDS011;26174;42.908;23.800;2023-03-23T08:06:02;32.90;;;18.33;;
40471;SDS011;26174;42.908;23.800;2023-03-23T08:08:28;35.00;;;18.35;;
40471;SDS011;26174;42.908;23.800;2023-03-23T08:10:56;27.00;;;16.42;;
40471;SDS011;26174;42.908;23.800;2023-03-23T08:13:22;29.67;;;17.20;;
40471;SDS011;26174;42.908;23.800;2023-03-23T08:15:48;28.58;;;17.20;;
40471;SDS011;26174;42.908;23.800;2023-03-23T08:18:14;30.98;;;17.40;;
40471;SDS011;26174;42.908;23.800;2023-03-23T08:20:40;28.77;;;16.65;;
40471;SDS011;26174;42.908;23.800;2023-03-23T08:23:06;28.65;;;16.05;;
40471;SDS011;26174;42.908;23.800;2023-03-23T08:25:32;28.17;;;16.25;;
40471;SDS011;26174;42.908;23.800;2023-03-23T08:27:58;29.27;;;16.27;;
40471;SDS011;26174;42.908;23.800;2023-03-23T08:30:26;29.83;;;15.48;;
40471;SDS011;26174;42.908;23.800;2023-03-23T08:32:55;24.27;;;14.52;;
40471;SDS011;26174;42.908;23.800;2023-03-23T08:35:22;27.52;;;15.60;;
40471;SDS011;26174;42.908;23.800;2023-03-23T08:37:48;25.92;;;14.50;;
40471;SDS011;26174;42.908;23.800;2023-03-23T08:40:20;21.50;;;13.57;;
40471;SDS011;26174;42.908;23.800;2023-03-23T08:42:47;23.58;;;13.73;;
40471;SDS011;26174;42.908;23.800;2023-03-23T08:45:15;22.63;;;13.27;;
40471;SDS011;26174;42.908;23.800;2023-03-23T08:47:42;25.25;;;14.35;;
40471;SDS011;26174;42.908;23.800;2023-03-23T08:50:11;22.85;;;13.70;;
40471;SDS011;26174;42.908;23.800;2023-03-23T08:52:38;24.13;;;11.98;;
40471;SDS011;26174;42.908;23.800;2023-03-23T08:55:04;22.52;;;12.02;;
40471;SDS011;26174;42.908;23.800;2023-03-23T08:57:30;20.45;;;12.63;;
40471;SDS011;26174;42.908;23.800;2023-03-23T08:59:59;22.42;;;13.35;;
40471;SDS011;26174;42.908;23.800;2023-03-23T09:05:04;28.50;;;13.27;;
40471;SDS011;26174;42.908;23.800;2023-03-23T09:08:00;22.08;;;12.82;;
40471;SDS011;26174;42.908;23.800;2023-03-23T09:10:26;21.33;;;10.73;;
40471;SDS011;26174;42.908;23.800;2023-03-23T09:12:53;29.88;;;15.82;;
40471;SDS011;26174;42.908;23.800;2023-03-23T09:15:20;33.25;;;18.00;;
40471;SDS011;26174;42.908;23.800;2023-03-23T09:17:49;22.13;;;11.73;;
40471;SDS011;26174;42.908;23.800;2023-03-23T09:20:17;19.25;;;12.02;;
40471;SDS011;26174;42.908;23.800;2023-03-23T09:22:46;19.63;;;11.18;;
40471;SDS011;26174;42.908;23.800;2023-03-23T09:25:32;18.75;;;10.93;;
40471;SDS011;26174;42.908;23.800;2023-03-23T09:27:58;24.77;;;13.30;;
40471;SDS011;26174;42.908;23.800;2023-03-23T09:30:25;22.90;;;10.98;;
40471;SDS011;26174;42.908;23.800;2023-03-23T09:33:01;20.95;;;12.38;;
40471;SDS011;26174;42.908;23.800;2023-03-23T09:35:28;21.17;;;11.15;;
40471;SDS011;26174;42.908;23.800;2023-03-23T09:37:56;17.25;;;10.38;;
40471;SDS011;26174;42.908;23.800;2023-03-23T09:40:30;18.98;;;10.20;;
40471;SDS011;26174;42.908;23.800;2023-03-23T09:45:55;20.05;;;10.85;;
40471;SDS011;26174;42.908;23.800;2023-03-23T09:54:23;15.98;;;10.00;;
40471;SDS011;26174;42.908;23.800;2023-03-23T09:56:49;16.10;;;9.88;;
40471;SDS011;26174;42.908;23.800;2023-03-23T10:04:47;16.90;;;10.52;;
40471;SDS011;26174;42.908;23.800;2023-03-23T10:07:16;23.88;;;11.05;;
40471;SDS011;26174;42.908;23.800;2023-03-23T10:09:44;16.63;;;10.80;;
40471;SDS011;26174;42.908;23.800;2023-03-23T10:12:23;19.38;;;11.68;;
40471;SDS011;26174;42.908;23.800;2023-03-23T10:52:40;18.48;;;10.40;;
